Time;durP1;ratioP1;P1;durP2;ratioP2;P2;SDS_P1;SDS_P2;PMS_P1;PMS_P2;Temp;Humidity;BMP_temperature;BMP_pressure;BME280_temperature;BME280_humidity;BME280_pressure;Samples;Min_cycle;Max_cycle;Signal;HPM_P1;HPM_P2
2022/12/06 00:01:35;;;;;;;8.93;6.90;;;;;;;;;;4991496;28;20065;-77
2022/12/06 00:04:05;;;;;;;6.40;5.22;;;;;;;;;;5006227;28;20045;-79
2022/12/06 00:06:31;;;;;;;5.57;5.13;;;;;;;;;;5005525;28;20042;-77
2022/12/06 00:09:03;;;;;;;8.80;7.20;;;;;;;;;;5005247;28;20124;-77
2022/12/06 00:11:32;;;;;;;4.90;4.50;;;;;;;;;;4988441;28;20042;-77
2022/12/06 00:14:07;;;;;;;11.05;5.22;;;;;;;;;;4990317;28;20125;-77
2022/12/06 00:16:45;;;;;;;11.40;8.60;;;;;;;;;;4985652;28;20093;-77
2022/12/06 00:19:11;;;;;;;5.85;5.30;;;;;;;;;;4977661;28;20042;-77
2022/12/06 00:21:38;;;;;;;6.40;5.65;;;;;;;;;;4993884;28;20037;-76
2022/12/06 00:24:07;;;;;;;8.80;5.55;;;;;;;;;;5026059;28;20041;-78
2022/12/06 00:26:35;;;;;;;3.65;3.35;;;;;;;;;;4990778;28;20072;-76
2022/12/06 00:29:01;;;;;;;5.60;4.78;;;;;;;;;;4974809;28;20060;-77
2022/12/06 00:31:28;;;;;;;6.90;5.32;;;;;;;;;;4978242;28;20061;-80
2022/12/06 00:33:54;;;;;;;7.72;5.70;;;;;;;;;;4997421;28;20041;-77
2022/12/06 00:36:24;;;;;;;6.50;5.90;;;;;;;;;;5030439;28;20080;-78
2022/12/06 00:38:53;;;;;;;6.05;5.35;;;;;;;;;;4997307;28;20097;-78
2022/12/06 00:41:20;;;;;;;5.75;5.10;;;;;;;;;;4993365;28;20106;-77
2022/12/06 00:43:46;;;;;;;6.35;3.63;;;;;;;;;;4994957;28;20042;-76
2022/12/06 00:46:16;;;;;;;4.88;4.47;;;;;;;;;;5025732;28;20045;-76
2022/12/06 00:48:42;;;;;;;4.90;4.50;;;;;;;;;;4988338;28;20036;-76
2022/12/06 00:51:09;;;;;;;4.88;4.47;;;;;;;;;;4990680;28;20081;-76
2022/12/06 00:53:35;;;;;;;8.73;4.45;;;;;;;;;;4973977;28;20033;-75
2022/12/06 00:56:01;;;;;;;6.43;5.47;;;;;;;;;;4975687;28;20143;-75
2022/12/06 00:58:29;;;;;;;4.63;4.22;;;;;;;;;;4991340;28;20109;-76
2022/12/06 01:01:05;;;;;;;8.25;6.20;;;;;;;;;;4993363;28;20037;-76
2022/12/06 01:03:31;;;;;;;5.95;4.43;;;;;;;;;;4991142;28;20072;-76
2022/12/06 01:06:26;;;;;;;9.38;5.30;;;;;;;;;;4998292;28;20126;-77
2022/12/06 01:08:53;;;;;;;7.95;5.78;;;;;;;;;;4991599;28;20041;-76
2022/12/06 01:11:19;;;;;;;4.30;4.00;;;;;;;;;;4993694;28;20546;-77
2022/12/06 01:13:46;;;;;;;4.88;3.55;;;;;;;;;;4993230;28;20037;-77
2022/12/06 01:16:13;;;;;;;4.32;3.92;;;;;;;;;;4993029;28;20134;-77
2022/12/06 01:18:40;;;;;;;6.93;5.25;;;;;;;;;;4991518;28;20157;-77
2022/12/06 01:21:16;;;;;;;6.47;5.80;;;;;;;;;;4992472;28;20042;-77
2022/12/06 01:23:42;;;;;;;7.45;6.70;;;;;;;;;;4974275;28;20042;-77
2022/12/06 01:26:14;;;;;;;4.30;3.92;;;;;;;;;;5027776;28;20349;-77
2022/12/06 01:28:45;;;;;;;3.90;3.60;;;;;;;;;;5007914;28;20045;-79
2022/12/06 01:31:17;;;;;;;5.75;4.65;;;;;;;;;;5005190;28;20061;-78
2022/12/06 01:33:43;;;;;;;4.93;4.15;;;;;;;;;;5012161;28;20048;-78
2022/12/06 01:36:17;;;;;;;7.03;6.32;;;;;;;;;;5012032;28;20091;-78
2022/12/06 01:38:43;;;;;;;7.60;6.05;;;;;;;;;;5011759;28;20041;-77
2022/12/06 01:41:11;;;;;;;9.13;4.53;;;;;;;;;;5011303;28;20033;-77
2022/12/06 01:43:41;;;;;;;7.05;4.43;;;;;;;;;;5027671;28;20060;-78
2022/12/06 01:46:26;;;;;;;7.45;5.03;;;;;;;;;;5011052;28;20056;-79
2022/12/06 01:48:54;;;;;;;6.53;5.93;;;;;;;;;;5011939;28;20068;-78
2022/12/06 01:51:20;;;;;;;4.82;3.65;;;;;;;;;;5012174;28;20144;-77
2022/12/06 01:53:47;;;;;;;5.07;4.68;;;;;;;;;;5012059;28;20042;-77
2022/12/06 01:56:15;;;;;;;4.30;3.90;;;;;;;;;;5012446;28;20049;-78
2022/12/06 01:58:43;;;;;;;4.43;3.92;;;;;;;;;;5025506;28;20097;-77
2022/12/06 02:01:09;;;;;;;3.47;3.20;;;;;;;;;;4976443;28;20065;-77
2022/12/06 02:03:36;;;;;;;6.07;4.63;;;;;;;;;;4976968;28;20100;-78
2022/12/06 02:06:05;;;;;;;9.18;6.72;;;;;;;;;;4978049;28;20052;-78
2022/12/06 02:08:31;;;;;;;6.88;6.13;;;;;;;;;;4993038;28;20034;-78
2022/12/06 02:10:58;;;;;;;10.82;6.00;;;;;;;;;;4968667;28;20057;-80
2022/12/06 02:13:24;;;;;;;6.60;4.72;;;;;;;;;;4984376;28;20414;-78
2022/12/06 02:15:53;;;;;;;6.80;5.30;;;;;;;;;;5017836;28;20240;-78
2022/12/06 02:18:28;;;;;;;4.78;4.43;;;;;;;;;;5012091;28;20655;-78
2022/12/06 02:21:04;;;;;;;8.75;5.93;;;;;;;;;;4994706;28;20033;-77
2022/12/06 02:23:39;;;;;;;5.03;4.63;;;;;;;;;;4994873;28;20042;-78
2022/12/06 02:26:14;;;;;;;3.83;3.53;;;;;;;;;;5028425;28;20042;-76
2022/12/06 02:28:44;;;;;;;5.65;4.88;;;;;;;;;;4992597;28;20046;-77
2022/12/06 02:31:12;;;;;;;10.00;6.18;;;;;;;;;;4994292;28;20060;-80
2022/12/06 02:33:51;;;;;;;7.88;5.50;;;;;;;;;;4996041;28;20049;-77
2022/12/06 02:36:29;;;;;;;8.55;6.43;;;;;;;;;;4995474;28;20048;-79
2022/12/06 02:39:10;;;;;;;4.82;4.43;;;;;;;;;;5009807;28;20030;-76
2022/12/06 02:41:41;;;;;;;4.22;3.92;;;;;;;;;;4992764;28;20104;-79
2022/12/06 02:44:11;;;;;;;4.78;4.18;;;;;;;;;;5011565;28;20041;-79
2022/12/06 02:46:42;;;;;;;8.40;5.18;;;;;;;;;;4994012;28;20095;-79
2022/12/06 02:49:34;;;;;;;9.10;4.68;;;;;;;;;;4999562;28;20086;-78
2022/12/06 02:52:00;;;;;;;5.03;4.55;;;;;;;;;;4978390;28;20041;-77
2022/12/06 02:54:27;;;;;;;5.72;4.90;;;;;;;;;;5009198;28;20065;-77
2022/12/06 02:56:59;;;;;;;5.82;4.40;;;;;;;;;;5007212;28;20046;-78
2022/12/06 02:59:25;;;;;;;6.80;4.78;;;;;;;;;;5023349;28;20451;-78
2022/12/06 03:01:52;;;;;;;6.82;4.97;;;;;;;;;;4972688;28;20065;-76
2022/12/06 03:04:30;;;;;;;4.30;3.95;;;;;;;;;;5005410;28;20513;-78
2022/12/06 03:07:15;;;;;;;4.40;4.07;;;;;;;;;;4983313;28;20033;-76
2022/12/06 03:10:10;;;;;;;7.93;6.95;;;;;;;;;;4987370;28;20058;-77
2022/12/06 03:12:39;;;;;;;6.43;5.50;;;;;;;;;;4994274;28;20038;-76
2022/12/06 03:15:24;;;;;;;9.50;7.03;;;;;;;;;;5003735;28;20040;-77
2022/12/06 03:18:10;;;;;;;9.20;6.72;;;;;;;;;;4954588;28;20034;-77
2022/12/06 03:20:43;;;;;;;8.30;6.22;;;;;;;;;;5000263;28;20096;-75
2022/12/06 03:23:11;;;;;;;4.97;4.22;;;;;;;;;;4975899;28;20087;-78
2022/12/06 03:25:37;;;;;;;6.20;4.35;;;;;;;;;;4950101;28;20576;-77
2022/12/06 03:28:03;;;;;;;6.28;5.68;;;;;;;;;;4959563;28;20025;-77
2022/12/06 03:30:31;;;;;;;7.28;5.75;;;;;;;;;;4949213;28;20041;-77
2022/12/06 03:32:57;;;;;;;4.75;4.38;;;;;;;;;;4961218;28;20414;-76
2022/12/06 03:35:25;;;;;;;6.68;5.63;;;;;;;;;;4962223;28;20046;-77
2022/12/06 03:37:55;;;;;;;6.88;6.07;;;;;;;;;;4962454;28;20601;-79
2022/12/06 03:40:28;;;;;;;7.57;6.10;;;;;;;;;;5000838;28;20037;-77
2022/12/06 03:42:54;;;;;;;5.28;4.35;;;;;;;;;;4965447;28;20045;-79
2022/12/06 03:45:21;;;;;;;6.88;6.05;;;;;;;;;;4980065;28;20046;-80
2022/12/06 03:47:53;;;;;;;6.57;5.85;;;;;;;;;;4956936;28;20069;-80
2022/12/06 03:50:32;;;;;;;5.15;4.65;;;;;;;;;;4999922;28;20046;-80
2022/12/06 03:52:59;;;;;;;5.00;4.57;;;;;;;;;;4996415;28;20048;-78
2022/12/06 03:55:26;;;;;;;6.45;5.38;;;;;;;;;;5013210;28;20042;-79
2022/12/06 03:57:53;;;;;;;6.00;4.55;;;;;;;;;;4973573;28;20109;-78
2022/12/06 04:00:19;;;;;;;17.33;5.05;;;;;;;;;;5015180;28;20066;-79
2022/12/06 04:06:19;;;;;;;4.90;4.50;;;;;;;;;;5004062;28;20057;-78
2022/12/06 04:08:46;;;;;;;4.60;3.95;;;;;;;;;;4995414;28;20076;-77
2022/12/06 04:11:12;;;;;;;7.68;6.15;;;;;;;;;;4954672;28;20522;-78
2022/12/06 04:13:39;;;;;;;9.85;5.65;;;;;;;;;;4990138;28;20171;-77
2022/12/06 04:18:09;;;;;;;7.65;6.55;;;;;;;;;;4990392;28;20125;-78
2022/12/06 04:18:53;;;;;;;5.25;4.75;;;;;;;;;;4988621;28;20044;-78
2022/12/06 04:23:59;;;;;;;6.28;5.22;;;;;;;;;;5025072;28;20101;-78
2022/12/06 04:26:26;;;;;;;5.13;4.63;;;;;;;;;;5013224;28;20068;-80
2022/12/06 04:40:05;;;;;;;11.45;6.00;;;;;;;;;;4987769;28;20040;-79
2022/12/06 04:45:16;;;;;;;8.00;6.18;;;;;;;;;;4993457;28;20069;-79
2022/12/06 04:47:42;;;;;;;6.28;5.13;;;;;;;;;;4980549;28;20129;-78
2022/12/06 04:50:08;;;;;;;9.32;3.40;;;;;;;;;;4978305;28;20057;-78
2022/12/06 04:52:34;;;;;;;4.38;4.07;;;;;;;;;;4944983;28;20050;-78
2022/12/06 04:55:00;;;;;;;10.35;4.85;;;;;;;;;;4959848;28;20050;-78
2022/12/06 04:57:29;;;;;;;5.40;4.43;;;;;;;;;;4976540;28;20490;-78
2022/12/06 04:59:55;;;;;;;4.95;4.55;;;;;;;;;;4958889;28;20136;-79
2022/12/06 05:02:21;;;;;;;5.03;4.57;;;;;;;;;;4945589;28;20041;-78
2022/12/06 05:04:47;;;;;;;5.20;4.80;;;;;;;;;;4948879;28;20140;-78
2022/12/06 05:07:13;;;;;;;6.38;4.93;;;;;;;;;;4963753;28;20034;-78
2022/12/06 05:09:40;;;;;;;6.38;5.70;;;;;;;;;;4982366;28;20082;-80
2022/12/06 05:12:06;;;;;;;8.32;6.80;;;;;;;;;;4981957;28;20502;-80
2022/12/06 05:14:32;;;;;;;9.27;7.45;;;;;;;;;;4982583;28;20053;-78
2022/12/06 05:16:59;;;;;;;11.70;7.65;;;;;;;;;;5013824;28;20038;-80
2022/12/06 05:19:26;;;;;;;5.88;4.22;;;;;;;;;;4979694;28;20056;-79
2022/12/06 05:21:59;;;;;;;6.90;6.20;;;;;;;;;;4981083;28;20084;-78
2022/12/06 05:24:28;;;;;;;9.77;5.53;;;;;;;;;;4979877;28;20562;-79
2022/12/06 05:27:00;;;;;;;3.83;3.63;;;;;;;;;;4980139;28;20038;-79
2022/12/06 05:29:51;;;;;;;4.93;4.50;;;;;;;;;;4968984;28;20054;-79
2022/12/06 05:32:23;;;;;;;7.82;6.03;;;;;;;;;;4994824;28;20045;-79
2022/12/06 05:34:49;;;;;;;4.53;4.13;;;;;;;;;;4977460;28;20038;-80
2022/12/06 05:37:16;;;;;;;4.72;4.32;;;;;;;;;;4986443;28;20035;-79
2022/12/06 05:39:42;;;;;;;4.85;4.20;;;;;;;;;;4944340;28;20446;-80
2022/12/06 05:42:09;;;;;;;8.77;6.05;;;;;;;;;;4974916;28;20046;-79
2022/12/06 05:44:35;;;;;;;4.70;4.30;;;;;;;;;;4992318;28;20157;-80
2022/12/06 05:47:04;;;;;;;6.38;5.55;;;;;;;;;;4973629;28;20105;-80
2022/12/06 05:49:30;;;;;;;10.05;7.28;;;;;;;;;;4958875;28;20152;-81
2022/12/06 05:51:56;;;;;;;6.95;5.60;;;;;;;;;;4972688;28;20033;-80
2022/12/06 05:54:22;;;;;;;7.38;6.68;;;;;;;;;;4981887;28;20821;-77
2022/12/06 05:56:49;;;;;;;6.10;4.75;;;;;;;;;;4957789;28;20042;-76
2022/12/06 05:59:15;;;;;;;9.02;7.05;;;;;;;;;;4926322;28;20071;-76
2022/12/06 06:01:41;;;;;;;8.65;6.80;;;;;;;;;;4942016;28;20128;-79
2022/12/06 06:04:07;;;;;;;4.57;4.10;;;;;;;;;;4976315;28;20074;-77
2022/12/06 06:06:43;;;;;;;7.38;6.25;;;;;;;;;;4977744;28;20041;-78
2022/12/06 06:09:09;;;;;;;9.95;8.63;;;;;;;;;;4960715;28;20054;-77
2022/12/06 06:11:36;;;;;;;5.28;4.50;;;;;;;;;;4975930;28;20052;-76
2022/12/06 06:14:02;;;;;;;5.32;4.80;;;;;;;;;;4990534;28;20042;-76
2022/12/06 06:16:28;;;;;;;7.85;6.07;;;;;;;;;;4995337;28;20160;-76
2022/12/06 06:18:54;;;;;;;5.40;4.90;;;;;;;;;;4990714;28;20128;-76
2022/12/06 06:21:22;;;;;;;4.68;4.32;;;;;;;;;;4978280;28;20052;-75
2022/12/06 06:23:48;;;;;;;6.25;5.65;;;;;;;;;;4995102;28;20417;-76
2022/12/06 06:26:14;;;;;;;5.20;4.90;;;;;;;;;;4984518;28;20144;-77
2022/12/06 06:28:44;;;;;;;7.85;6.68;;;;;;;;;;4960743;28;20472;-75
2022/12/06 06:31:11;;;;;;;7.43;6.53;;;;;;;;;;4989059;28;20053;-74
2022/12/06 06:33:38;;;;;;;9.65;7.43;;;;;;;;;;4971827;28;20131;-75
2022/12/06 06:36:05;;;;;;;9.07;7.70;;;;;;;;;;4955431;28;20067;-74
2022/12/06 06:38:31;;;;;;;7.32;6.22;;;;;;;;;;4988043;28;20113;-75
2022/12/06 06:41:00;;;;;;;6.00;5.43;;;;;;;;;;4955855;28;20538;-75
2022/12/06 06:43:26;;;;;;;5.43;4.93;;;;;;;;;;4972088;28;20042;-74
2022/12/06 06:45:53;;;;;;;5.75;5.35;;;;;;;;;;4955635;28;20042;-78
2022/12/06 06:48:44;;;;;;;5.90;5.40;;;;;;;;;;4953273;28;20042;-78
2022/12/06 06:51:11;;;;;;;5.03;4.55;;;;;;;;;;4972470;28;20056;-77
2022/12/06 06:53:37;;;;;;;12.40;5.10;;;;;;;;;;4956399;28;20046;-77
2022/12/06 06:56:04;;;;;;;5.53;5.03;;;;;;;;;;4961583;28;20046;-80
2022/12/06 06:58:31;;;;;;;4.85;4.38;;;;;;;;;;4977491;28;20070;-80
2022/12/06 07:00:59;;;;;;;4.45;3.88;;;;;;;;;;4997217;28;20129;-79
2022/12/06 07:06:22;;;;;;;7.15;6.43;;;;;;;;;;4994680;28;20042;-78
2022/12/06 07:08:51;;;;;;;5.38;4.88;;;;;;;;;;4988450;28;20038;-78
2022/12/06 07:11:17;;;;;;;4.47;4.18;;;;;;;;;;4941381;28;20046;-77
2022/12/06 07:13:46;;;;;;;6.20;5.28;;;;;;;;;;4958089;28;20144;-76
2022/12/06 07:16:13;;;;;;;5.35;4.85;;;;;;;;;;4972161;28;20138;-77
2022/12/06 07:18:40;;;;;;;6.65;5.90;;;;;;;;;;4988833;28;20035;-76
2022/12/06 07:21:14;;;;;;;6.57;4.20;;;;;;;;;;4985471;28;20088;-76
2022/12/06 07:23:44;;;;;;;3.65;3.10;;;;;;;;;;4978884;28;20070;-76
2022/12/06 07:26:14;;;;;;;4.63;4.32;;;;;;;;;;4974407;28;20050;-76
2022/12/06 07:28:41;;;;;;;5.03;4.63;;;;;;;;;;4985942;28;20072;-75
2022/12/06 07:31:14;;;;;;;6.82;5.68;;;;;;;;;;4970536;28;20071;-76
2022/12/06 07:33:40;;;;;;;5.15;4.55;;;;;;;;;;5000319;28;20045;-76
2022/12/06 07:36:06;;;;;;;5.03;4.40;;;;;;;;;;5019204;28;20049;-78
2022/12/06 07:38:33;;;;;;;7.25;6.22;;;;;;;;;;5002261;28;20059;-78
2022/12/06 07:44:59;;;;;;;6.80;6.05;;;;;;;;;;4993825;28;20038;-78
2022/12/06 07:46:38;;;;;;;7.35;6.63;;;;;;;;;;4990448;28;20501;-76
2022/12/06 07:49:04;;;;;;;5.80;5.28;;;;;;;;;;4977433;28;20048;-75
2022/12/06 07:51:30;;;;;;;3.85;3.65;;;;;;;;;;4981535;28;20691;-76
2022/12/06 07:54:05;;;;;;;4.25;3.33;;;;;;;;;;4961159;28;20156;-77
2022/12/06 07:56:36;;;;;;;8.25;6.38;;;;;;;;;;4989480;28;20050;-76
2022/12/06 07:59:07;;;;;;;9.68;5.72;;;;;;;;;;4982266;28;20061;-75
2022/12/06 08:01:36;;;;;;;7.50;6.22;;;;;;;;;;4974847;28;20042;-76
2022/12/06 08:04:23;;;;;;;10.40;6.28;;;;;;;;;;4973764;28;20042;-76
2022/12/06 08:06:51;;;;;;;6.53;5.93;;;;;;;;;;4986503;28;20047;-76
2022/12/06 08:09:17;;;;;;;5.45;4.70;;;;;;;;;;4992367;28;20065;-77
2022/12/06 08:12:08;;;;;;;7.00;6.30;;;;;;;;;;4985630;28;20042;-77
2022/12/06 08:14:34;;;;;;;5.53;4.83;;;;;;;;;;4991629;28;20234;-77
2022/12/06 08:17:00;;;;;;;4.82;4.45;;;;;;;;;;4974336;28;20292;-79
2022/12/06 08:19:26;;;;;;;5.53;4.97;;;;;;;;;;5005251;28;20081;-77
2022/12/06 08:22:01;;;;;;;4.35;3.92;;;;;;;;;;5007963;28;20100;-77
2022/12/06 08:24:27;;;;;;;4.75;4.35;;;;;;;;;;4974014;28;20544;-77
2022/12/06 08:26:55;;;;;;;5.10;4.30;;;;;;;;;;4974937;28;20045;-76
2022/12/06 08:29:21;;;;;;;6.70;6.10;;;;;;;;;;4940332;28;20652;-77
2022/12/06 08:31:47;;;;;;;7.45;4.85;;;;;;;;;;4972745;28;20136;-79
2022/12/06 08:34:15;;;;;;;8.07;6.00;;;;;;;;;;4966057;28;20439;-77
2022/12/06 08:37:07;;;;;;;6.72;5.53;;;;;;;;;;5006192;28;20449;-79
2022/12/06 08:39:36;;;;;;;9.02;8.13;;;;;;;;;;4977271;28;20041;-78
2022/12/06 08:42:26;;;;;;;6.30;5.68;;;;;;;;;;4981255;28;20081;-77
2022/12/06 08:45:05;;;;;;;6.32;5.03;;;;;;;;;;4980579;28;20050;-80
2022/12/06 08:47:31;;;;;;;5.55;4.70;;;;;;;;;;4978404;28;20042;-81
2022/12/06 08:50:22;;;;;;;9.35;5.75;;;;;;;;;;5016005;28;20057;-80
2022/12/06 08:52:48;;;;;;;6.20;5.60;;;;;;;;;;4978702;28;20034;-80
2022/12/06 08:55:15;;;;;;;4.60;4.20;;;;;;;;;;5010883;28;20422;-79
2022/12/06 08:57:47;;;;;;;9.57;4.47;;;;;;;;;;5011625;28;20045;-77
2022/12/06 09:00:17;;;;;;;6.28;5.63;;;;;;;;;;4962928;28;20710;-79
2022/12/06 09:02:43;;;;;;;6.45;5.85;;;;;;;;;;4958528;28;20046;-76
2022/12/06 09:05:09;;;;;;;12.05;6.78;;;;;;;;;;4977023;28;20141;-76
2022/12/06 09:07:35;;;;;;;4.25;3.85;;;;;;;;;;4973022;28;20043;-77
2022/12/06 09:10:01;;;;;;;6.32;5.57;;;;;;;;;;4986924;28;20050;-80
2022/12/06 09:12:29;;;;;;;5.63;4.80;;;;;;;;;;4993538;28;20049;-78
2022/12/06 09:14:55;;;;;;;4.72;4.28;;;;;;;;;;4992213;28;20042;-78
2022/12/06 09:17:27;;;;;;;5.20;4.70;;;;;;;;;;5005284;28;20422;-76
2022/12/06 09:19:53;;;;;;;4.35;3.72;;;;;;;;;;4990758;28;20049;-79
2022/12/06 09:22:20;;;;;;;6.10;5.20;;;;;;;;;;5009205;28;20056;-78
2022/12/06 09:24:46;;;;;;;6.53;5.95;;;;;;;;;;4973270;28;20511;-76
2022/12/06 09:27:12;;;;;;;5.10;4.43;;;;;;;;;;4985306;28;20042;-78
2022/12/06 09:29:38;;;;;;;4.78;4.32;;;;;;;;;;4961673;28;20146;-77
2022/12/06 09:32:04;;;;;;;5.53;5.03;;;;;;;;;;4977632;28;20085;-76
2022/12/06 09:34:56;;;;;;;5.93;4.07;;;;;;;;;;4953587;28;20096;-78
2022/12/06 09:37:29;;;;;;;6.05;4.93;;;;;;;;;;4994546;28;20129;-76
2022/12/06 09:39:56;;;;;;;5.97;4.72;;;;;;;;;;4952836;28;20042;-76
2022/12/06 09:42:41;;;;;;;7.53;5.03;;;;;;;;;;4977545;28;20195;-75
2022/12/06 09:45:08;;;;;;;13.13;6.10;;;;;;;;;;4961885;28;20041;-79
2022/12/06 09:47:52;;;;;;;5.38;4.68;;;;;;;;;;4977686;28;20046;-77
2022/12/06 09:50:20;;;;;;;6.05;5.22;;;;;;;;;;4983568;28;20384;-76
2022/12/06 09:52:50;;;;;;;4.75;4.32;;;;;;;;;;4980135;28;20096;-77
2022/12/06 09:55:19;;;;;;;4.97;4.32;;;;;;;;;;4962245;28;20046;-77
2022/12/06 09:57:47;;;;;;;6.00;5.47;;;;;;;;;;4932838;28;20034;-76
2022/12/06 10:00:14;;;;;;;5.60;5.10;;;;;;;;;;4970692;28;21047;-75
2022/12/06 10:02:49;;;;;;;6.20;4.95;;;;;;;;;;4955969;28;20408;-79
2022/12/06 10:05:19;;;;;;;6.32;5.22;;;;;;;;;;4963732;28;20329;-81
2022/12/06 10:07:49;;;;;;;;;;;;;;;;;;4945786;28;20093;-80
2022/12/06 10:10:37;;;;;;;4.68;4.38;;;;;;;;;;4958761;28;19926;-77
2022/12/06 10:13:22;;;;;;;5.35;4.82;;;;;;;;;;4965090;28;20129;-79
2022/12/06 10:16:13;;;;;;;5.38;4.88;;;;;;;;;;4957293;28;20133;-78
2022/12/06 10:18:54;;;;;;;3.63;3.37;;;;;;;;;;4917691;28;22039;-78
2022/12/06 10:21:20;;;;;;;6.37;5.20;;;;;;;;;;4939302;28;20943;-78
2022/12/06 10:23:46;;;;;;;4.05;3.70;;;;;;;;;;4958837;28;20088;-79
2022/12/06 10:26:24;;;;;;;5.45;4.95;;;;;;;;;;4950738;28;20046;-81
2022/12/06 10:29:13;;;;;;;3.92;3.63;;;;;;;;;;4946273;28;20141;-78
2022/12/06 10:31:43;;;;;;;4.28;3.13;;;;;;;;;;4939139;28;20046;-77
2022/12/06 10:34:20;;;;;;;4.93;4.53;;;;;;;;;;4948360;28;21905;-79
2022/12/06 10:37:19;;;;;;;7.20;5.72;;;;;;;;;;4933047;28;20069;-78
2022/12/06 10:39:47;;;;;;;6.05;4.07;;;;;;;;;;4955130;28;20550;-77
2022/12/06 10:42:31;;;;;;;4.10;3.70;;;;;;;;;;4962203;28;20042;-78
2022/12/06 10:47:02;;;;;;;5.63;5.05;;;;;;;;;;4939019;28;20061;-79
2022/12/06 10:47:57;;;;;;;6.30;5.10;;;;;;;;;;4940642;28;20039;-77
2022/12/06 10:50:31;;;;;;;3.97;3.67;;;;;;;;;;4947969;28;20153;-77
2022/12/06 10:53:01;;;;;;;6.10;5.45;;;;;;;;;;4915870;28;20098;-77
2022/12/06 10:55:31;;;;;;;5.88;5.30;;;;;;;;;;4958249;28;20113;-77
2022/12/06 10:58:18;;;;;;;5.13;4.72;;;;;;;;;;4964195;28;20034;-77
2022/12/06 11:01:09;;;;;;;4.57;4.20;;;;;;;;;;4962525;28;20042;-77
2022/12/06 11:03:44;;;;;;;4.50;3.75;;;;;;;;;;4926423;28;20042;-79
2022/12/06 11:06:14;;;;;;;5.55;4.93;;;;;;;;;;4956346;28;20042;-81
2022/12/06 11:08:50;;;;;;;3.90;3.63;;;;;;;;;;4966010;28;20096;-76
2022/12/06 11:11:22;;;;;;;8.63;5.10;;;;;;;;;;4950797;28;20748;-76
2022/12/06 11:13:53;;;;;;;4.22;3.85;;;;;;;;;;4960097;28;20038;-77
2022/12/06 11:16:32;;;;;;;5.03;4.63;;;;;;;;;;4958633;28;20046;-76
2022/12/06 11:19:22;;;;;;;4.75;4.35;;;;;;;;;;4958544;28;20455;-76
2022/12/06 11:21:52;;;;;;;4.75;4.38;;;;;;;;;;4977001;28;20467;-75
2022/12/06 11:24:25;;;;;;;5.13;4.70;;;;;;;;;;4976698;28;20145;-76
2022/12/06 11:26:53;;;;;;;3.95;3.65;;;;;;;;;;4925981;28;20055;-74
2022/12/06 11:29:19;;;;;;;3.03;2.83;;;;;;;;;;4930930;28;20118;-73
2022/12/06 11:31:46;;;;;;;5.43;4.20;;;;;;;;;;4902932;28;20134;-75
2022/12/06 11:34:22;;;;;;;4.85;4.45;;;;;;;;;;4911696;28;20043;-74
2022/12/06 11:36:54;;;;;;;4.22;3.80;;;;;;;;;;4900525;28;20397;-75
2022/12/06 11:39:20;;;;;;;3.42;3.13;;;;;;;;;;4942849;28;20047;-75
2022/12/06 11:41:48;;;;;;;4.20;3.83;;;;;;;;;;4893568;28;20435;-74
2022/12/06 11:44:24;;;;;;;9.27;3.35;;;;;;;;;;4917959;28;20150;-75
2022/12/06 11:46:54;;;;;;;6.63;3.92;;;;;;;;;;4932115;28;20203;-74
2022/12/06 11:49:46;;;;;;;3.67;3.38;;;;;;;;;;4910992;28;20059;-75
2022/12/06 11:52:13;;;;;;;3.80;3.53;;;;;;;;;;4930483;28;20405;-75
2022/12/06 11:54:41;;;;;;;3.33;3.13;;;;;;;;;;4903790;28;20050;-74
2022/12/06 11:57:26;;;;;;;5.63;3.90;;;;;;;;;;4930023;28;20062;-75
2022/12/06 12:00:08;;;;;;;3.65;3.35;;;;;;;;;;4933170;28;20140;-75
2022/12/06 12:02:38;;;;;;;5.32;4.82;;;;;;;;;;4941327;28;21424;-74
2022/12/06 12:05:08;;;;;;;10.40;4.15;;;;;;;;;;4956068;28;20124;-74
2022/12/06 12:07:37;;;;;;;3.65;3.35;;;;;;;;;;4990004;28;20041;-75
2022/12/06 12:10:04;;;;;;;3.60;3.28;;;;;;;;;;4964314;28;20128;-75
2022/12/06 12:15:26;;;;;;;4.22;3.85;;;;;;;;;;4985226;28;20049;-74
2022/12/06 12:17:59;;;;;;;3.85;3.55;;;;;;;;;;4983672;28;20049;-73
2022/12/06 12:20:39;;;;;;;4.45;4.00;;;;;;;;;;4969024;28;20055;-74
2022/12/06 12:23:28;;;;;;;2.92;2.72;;;;;;;;;;4967713;28;20053;-74
2022/12/06 12:25:58;;;;;;;3.15;2.95;;;;;;;;;;4951259;28;20124;-75
2022/12/06 12:28:32;;;;;;;4.88;4.50;;;;;;;;;;4952575;28;20238;-75
2022/12/06 12:31:09;;;;;;;3.92;3.65;;;;;;;;;;4970236;28;20144;-75
2022/12/06 12:33:39;;;;;;;3.63;3.35;;;;;;;;;;4967555;28;20045;-78
2022/12/06 12:36:14;;;;;;;4.13;3.65;;;;;;;;;;5007487;28;20127;-77
2022/12/06 12:38:42;;;;;;;4.63;4.25;;;;;;;;;;4991387;28;20046;-78
2022/12/06 12:41:27;;;;;;;7.00;4.28;;;;;;;;;;4992920;28;20041;-78
2022/12/06 12:43:53;;;;;;;3.85;3.55;;;;;;;;;;4984929;28;20045;-79
2022/12/06 12:46:20;;;;;;;3.30;3.03;;;;;;;;;;4965958;28;20157;-78
2022/12/06 12:48:47;;;;;;;8.05;3.33;;;;;;;;;;4960767;28;21418;-78
2022/12/06 12:51:25;;;;;;;4.78;3.92;;;;;;;;;;4943617;28;20421;-78
2022/12/06 12:53:56;;;;;;;13.27;4.75;;;;;;;;;;4944487;28;20057;-78
2022/12/06 12:56:23;;;;;;;3.45;3.20;;;;;;;;;;4955097;28;20148;-78
2022/12/06 12:58:50;;;;;;;7.93;4.60;;;;;;;;;;4984619;28;20087;-77
2022/12/06 13:01:36;;;;;;;4.13;3.53;;;;;;;;;;4951271;28;20065;-78
2022/12/06 13:04:25;;;;;;;3.47;3.22;;;;;;;;;;4965443;28;20058;-78
2022/12/06 13:06:54;;;;;;;8.68;4.07;;;;;;;;;;4961525;28;20300;-78
2022/12/06 13:09:21;;;;;;;3.90;3.60;;;;;;;;;;4959108;28;20049;-78
2022/12/06 13:11:49;;;;;;;3.75;3.45;;;;;;;;;;4965886;28;20060;-79
2022/12/06 13:14:17;;;;;;;3.22;3.03;;;;;;;;;;4959830;28;20063;-82
2022/12/06 13:16:48;;;;;;;3.65;3.35;;;;;;;;;;4943158;28;20087;-77
2022/12/06 13:19:17;;;;;;;4.32;3.97;;;;;;;;;;4958149;28;20037;-78
2022/12/06 13:21:44;;;;;;;4.43;4.10;;;;;;;;;;4952237;28;20919;-79
2022/12/06 13:24:10;;;;;;;3.42;3.13;;;;;;;;;;4967214;28;20041;-80
2022/12/06 13:26:43;;;;;;;6.35;4.03;;;;;;;;;;4970119;28;20041;-79
2022/12/06 13:29:32;;;;;;;5.65;3.50;;;;;;;;;;4968665;28;20045;-80
2022/12/06 13:31:59;;;;;;;6.53;4.80;;;;;;;;;;4945338;28;20042;-79
2022/12/06 13:34:25;;;;;;;8.35;5.28;;;;;;;;;;4951885;28;20672;-79
2022/12/06 13:36:52;;;;;;;3.47;3.15;;;;;;;;;;4966359;28;20822;-78
2022/12/06 13:39:30;;;;;;;4.55;4.25;;;;;;;;;;4968066;28;21354;-79
2022/12/06 13:44:45;;;;;;;6.60;5.97;;;;;;;;;;4967246;28;20033;-79
2022/12/06 13:47:41;;;;;;;7.10;4.28;;;;;;;;;;5001030;28;20042;-78
2022/12/06 13:50:14;;;;;;;3.92;3.42;;;;;;;;;;4946012;28;20561;-77
2022/12/06 13:52:46;;;;;;;4.72;4.05;;;;;;;;;;4966598;28;20047;-78
2022/12/06 13:55:31;;;;;;;4.30;3.50;;;;;;;;;;4989852;28;20449;-77
2022/12/06 13:57:57;;;;;;;3.03;2.83;;;;;;;;;;4972527;28;20311;-78
2022/12/06 14:00:30;;;;;;;4.47;3.83;;;;;;;;;;4964365;28;20131;-78
2022/12/06 14:03:23;;;;;;;4.38;3.97;;;;;;;;;;5006856;28;20141;-78
2022/12/06 14:06:04;;;;;;;3.78;3.47;;;;;;;;;;4984696;28;20521;-78
2022/12/06 14:08:37;;;;;;;3.25;2.92;;;;;;;;;;4989784;28;20052;-78
2022/12/06 14:11:05;;;;;;;6.53;2.85;;;;;;;;;;4983103;28;20041;-78
2022/12/06 14:13:35;;;;;;;3.72;3.28;;;;;;;;;;4999654;28;20084;-74
2022/12/06 14:16:02;;;;;;;3.28;3.05;;;;;;;;;;4973875;28;20064;-77
2022/12/06 14:18:29;;;;;;;3.97;3.67;;;;;;;;;;4964398;28;20061;-77
2022/12/06 14:20:55;;;;;;;2.92;2.72;;;;;;;;;;4967166;28;20129;-76
2022/12/06 14:23:26;;;;;;;3.58;3.30;;;;;;;;;;4962890;28;20045;-75
2022/12/06 14:26:12;;;;;;;3.58;3.38;;;;;;;;;;4965560;28;20069;-76
2022/12/06 14:28:39;;;;;;;4.38;3.97;;;;;;;;;;4951462;28;20048;-76
2022/12/06 14:31:24;;;;;;;4.10;3.80;;;;;;;;;;4965286;28;20575;-76
2022/12/06 14:34:15;;;;;;;4.90;3.65;;;;;;;;;;4965795;28;20495;-76
2022/12/06 14:36:41;;;;;;;5.68;3.38;;;;;;;;;;4948739;28;20506;-75
2022/12/06 14:39:20;;;;;;;5.25;4.70;;;;;;;;;;4956193;28;20073;-75
2022/12/06 14:44:52;;;;;;;4.22;3.88;;;;;;;;;;4989979;28;20095;-74
2022/12/06 14:47:22;;;;;;;5.70;4.68;;;;;;;;;;4972265;28;20156;-76
2022/12/06 14:52:53;;;;;;;6.25;4.85;;;;;;;;;;4968865;28;20068;-77
2022/12/06 14:55:30;;;;;;;4.28;3.65;;;;;;;;;;4967407;28;20049;-77
2022/12/06 14:58:11;;;;;;;4.57;4.15;;;;;;;;;;4973982;28;20124;-80
2022/12/06 15:00:40;;;;;;;4.73;4.33;;;;;;;;;;5005760;28;20048;-77
2022/12/06 15:03:10;;;;;;;4.57;4.15;;;;;;;;;;4965772;28;20038;-77
2022/12/06 15:05:37;;;;;;;5.68;3.78;;;;;;;;;;4964323;28;20088;-76
2022/12/06 15:08:26;;;;;;;3.25;3.05;;;;;;;;;;4997333;28;21462;-76
2022/12/06 15:14:17;;;;;;;4.60;3.90;;;;;;;;;;4980469;28;20497;-76
2022/12/06 15:16:44;;;;;;;4.32;3.88;;;;;;;;;;4966434;28;20125;-76
2022/12/06 15:19:13;;;;;;;4.45;4.15;;;;;;;;;;4976222;28;20069;-74
2022/12/06 15:21:39;;;;;;;3.30;3.08;;;;;;;;;;4961616;28;20089;-73
2022/12/06 15:24:16;;;;;;;3.80;3.53;;;;;;;;;;5001081;28;20763;-74
2022/12/06 15:26:42;;;;;;;9.55;4.93;;;;;;;;;;4974307;28;20168;-76
2022/12/06 15:29:08;;;;;;;3.92;3.63;;;;;;;;;;4978349;28;20699;-76
2022/12/06 15:31:49;;;;;;;4.85;4.25;;;;;;;;;;4949806;28;20057;-74
2022/12/06 15:34:24;;;;;;;8.77;4.60;;;;;;;;;;4952148;28;20445;-73
2022/12/06 15:37:15;;;;;;;4.70;4.30;;;;;;;;;;4959722;28;20041;-74
2022/12/06 15:39:42;;;;;;;3.72;3.35;;;;;;;;;;4946313;28;20041;-73
2022/12/06 15:42:34;;;;;;;4.20;3.90;;;;;;;;;;4928094;28;21907;-74
2022/12/06 15:45:01;;;;;;;4.20;3.80;;;;;;;;;;4955853;28;20038;-74
2022/12/06 15:47:34;;;;;;;4.25;3.78;;;;;;;;;;4977720;28;20100;-74
2022/12/06 15:50:03;;;;;;;4.25;3.85;;;;;;;;;;4957683;28;20706;-74